sensor_id;sensor_type;location;lat;lon;timestamp;pressure;altitude;pressure_sealevel;temperature;humidity
29315;BME280;16320;53.954;9.506;2023-04-01T00:00:19;99386.47;;;10.15;100.00
29315;BME280;16320;53.954;9.506;2023-04-01T00:03:25;99386.97;;;10.20;100.00
29315;BME280;16320;53.954;9.506;2023-04-01T00:06:33;99382.72;;;10.19;100.00
29315;BME280;16320;53.954;9.506;2023-04-01T00:09:37;99383.66;;;10.18;100.00
29315;BME280;16320;53.954;9.506;2023-04-01T00:12:43;99387.75;;;10.22;100.00
29315;BME280;16320;53.954;9.506;2023-04-01T00:15:48;99385.44;;;10.17;100.00
29315;BME280;16320;53.954;9.506;2023-04-01T00:18:53;99384.78;;;10.14;100.00
29315;BME280;16320;53.954;9.506;2023-04-01T00:21:58;99394.84;;;10.20;100.00
29315;BME280;16320;53.954;9.506;2023-04-01T00:25:04;99395.19;;;10.15;100.00
29315;BME280;16320;53.954;9.506;2023-04-01T00:28:08;99391.94;;;10.12;100.00
29315;BME280;16320;53.954;9.506;2023-04-01T00:31:14;99398.16;;;10.11;100.00
29315;BME280;16320;53.954;9.506;2023-04-01T00:34:19;99397.91;;;10.14;100.00
29315;BME280;16320;53.954;9.506;2023-04-01T00:37:24;99399.38;;;10.18;100.00
29315;BME280;16320;53.954;9.506;2023-04-01T00:40:38;99392.22;;;10.20;100.00
29315;BME280;16320;53.954;9.506;2023-04-01T00:43:45;99391.22;;;10.10;100.00
29315;BME280;16320;53.954;9.506;2023-04-01T00:46:51;99393.75;;;10.11;100.00
29315;BME280;16320;53.954;9.506;2023-04-01T00:49:56;99397.91;;;10.14;100.00
29315;BME280;16320;53.954;9.506;2023-04-01T00:53:02;99396.66;;;10.19;100.00
29315;BME280;16320;53.954;9.506;2023-04-01T00:56:17;99390.38;;;10.22;100.00
29315;BME280;16320;53.954;9.506;2023-04-01T00:59:27;99402.72;;;10.20;100.00
29315;BME280;16320;53.954;9.506;2023-04-01T01:02:34;99401.06;;;10.19;100.00
29315;BME280;16320;53.954;9.506;2023-04-01T01:16:08;99407.97;;;10.20;100.00
29315;BME280;16320;53.954;9.506;2023-04-01T01:22:52;99418.25;;;10.23;100.00
29315;BME280;16320;53.954;9.506;2023-04-01T01:29:48;99422.34;;;10.27;100.00
29315;BME280;16320;53.954;9.506;2023-04-01T01:36:20;99424.13;;;10.26;100.00
29315;BME280;16320;53.954;9.506;2023-04-01T01:39:31;99425.41;;;10.21;100.00
29315;BME280;16320;53.954;9.506;2023-04-01T01:42:42;99428.03;;;10.21;100.00
29315;BME280;16320;53.954;9.506;2023-04-01T01:45:53;99425.19;;;10.24;100.00
29315;BME280;16320;53.954;9.506;2023-04-01T01:49:00;99424.34;;;10.23;100.00
29315;BME280;16320;53.954;9.506;2023-04-01T01:52:07;99424.22;;;10.25;100.00
29315;BME280;16320;53.954;9.506;2023-04-01T01:55:32;99422.06;;;10.19;100.00
29315;BME280;16320;53.954;9.506;2023-04-01T01:59:07;99428.25;;;10.18;100.00
29315;BME280;16320;53.954;9.506;2023-04-01T02:02:13;99429.47;;;10.25;100.00
29315;BME280;16320;53.954;9.506;2023-04-01T02:05:23;99434.72;;;10.25;100.00
29315;BME280;16320;53.954;9.506;2023-04-01T02:08:41;99435.78;;;10.22;100.00
29315;BME280;16320;53.954;9.506;2023-04-01T02:12:00;99438.03;;;10.16;100.00
29315;BME280;16320;53.954;9.506;2023-04-01T02:15:09;99435.28;;;10.17;100.00
29315;BME280;16320;53.954;9.506;2023-04-01T02:18:16;99443.06;;;10.19;100.00
29315;BME280;16320;53.954;9.506;2023-04-01T02:21:24;99440.53;;;10.17;100.00
29315;BME280;16320;53.954;9.506;2023-04-01T02:24:31;99439.88;;;10.14;100.00
29315;BME280;16320;53.954;9.506;2023-04-01T02:27:39;99436.53;;;10.12;100.00
29315;BME280;16320;53.954;9.506;2023-04-01T02:30:46;99443.88;;;10.19;100.00
29315;BME280;16320;53.954;9.506;2023-04-01T02:33:52;99447.53;;;10.17;100.00
29315;BME280;16320;53.954;9.506;2023-04-01T02:36:57;99443.25;;;10.16;100.00
29315;BME280;16320;53.954;9.506;2023-04-01T02:40:06;99458.25;;;10.14;100.00
29315;BME280;16320;53.954;9.506;2023-04-01T02:43:11;99456.59;;;10.13;100.00
29315;BME280;16320;53.954;9.506;2023-04-01T02:46:15;99457.94;;;10.18;100.00
29315;BME280;16320;53.954;9.506;2023-04-01T02:49:20;99462.97;;;10.21;100.00
29315;BME280;16320;53.954;9.506;2023-04-01T02:52:26;99462.34;;;10.18;100.00
29315;BME280;16320;53.954;9.506;2023-04-01T02:55:30;99454.00;;;10.00;100.00
29315;BME280;16320;53.954;9.506;2023-04-01T02:58:35;99464.19;;;9.79;100.00
29315;BME280;16320;53.954;9.506;2023-04-01T03:01:39;99468.78;;;9.62;100.00
29315;BME280;16320;53.954;9.506;2023-04-01T03:04:44;99463.22;;;9.54;100.00
29315;BME280;16320;53.954;9.506;2023-04-01T03:07:49;99466.56;;;9.43;100.00
29315;BME280;16320;53.954;9.506;2023-04-01T03:10:53;99469.25;;;9.29;100.00
29315;BME280;16320;53.954;9.506;2023-04-01T03:13:58;99470.50;;;9.23;100.00
29315;BME280;16320;53.954;9.506;2023-04-01T03:17:02;99463.78;;;9.19;100.00
29315;BME280;16320;53.954;9.506;2023-04-01T03:20:07;99461.84;;;8.95;100.00
29315;BME280;16320;53.954;9.506;2023-04-01T03:23:13;99455.94;;;8.92;100.00
29315;BME280;16320;53.954;9.506;2023-04-01T03:26:18;99467.03;;;8.83;100.00
29315;BME280;16320;53.954;9.506;2023-04-01T03:29:22;99461.47;;;8.74;100.00
29315;BME280;16320;53.954;9.506;2023-04-01T03:32:27;99469.50;;;8.71;100.00
29315;BME280;16320;53.954;9.506;2023-04-01T03:35:32;99461.41;;;8.61;100.00
29315;BME280;16320;53.954;9.506;2023-04-01T03:38:38;99465.53;;;8.51;100.00
29315;BME280;16320;53.954;9.506;2023-04-01T03:41:42;99464.31;;;8.42;100.00
29315;BME280;16320;53.954;9.506;2023-04-01T03:44:46;99462.34;;;8.32;100.00
29315;BME280;16320;53.954;9.506;2023-04-01T03:47:51;99466.94;;;8.28;100.00
29315;BME280;16320;53.954;9.506;2023-04-01T03:50:56;99481.81;;;8.28;100.00
29315;BME280;16320;53.954;9.506;2023-04-01T03:54:00;99484.25;;;8.16;100.00
29315;BME280;16320;53.954;9.506;2023-04-01T03:57:05;99478.19;;;8.16;100.00
29315;BME280;16320;53.954;9.506;2023-04-01T04:00:10;99493.00;;;8.15;100.00
29315;BME280;16320;53.954;9.506;2023-04-01T04:03:15;99487.03;;;8.13;100.00
29315;BME280;16320;53.954;9.506;2023-04-01T04:06:20;99497.31;;;8.02;100.00
29315;BME280;16320;53.954;9.506;2023-04-01T04:09:24;99496.66;;;7.98;100.00
29315;BME280;16320;53.954;9.506;2023-04-01T04:12:29;99501.97;;;7.82;100.00
29315;BME280;16320;53.954;9.506;2023-04-01T04:15:33;99505.50;;;7.81;100.00
29315;BME280;16320;53.954;9.506;2023-04-01T04:18:37;99505.03;;;7.75;100.00
29315;BME280;16320;53.954;9.506;2023-04-01T04:21:42;99507.00;;;7.71;100.00
29315;BME280;16320;53.954;9.506;2023-04-01T04:24:46;99515.00;;;7.68;100.00
29315;BME280;16320;53.954;9.506;2023-04-01T04:27:51;99520.59;;;7.62;100.00
29315;BME280;16320;53.954;9.506;2023-04-01T04:30:55;99520.69;;;7.60;100.00
29315;BME280;16320;53.954;9.506;2023-04-01T04:34:00;99521.81;;;7.56;100.00
29315;BME280;16320;53.954;9.506;2023-04-01T04:37:05;99519.47;;;7.51;100.00
29315;BME280;16320;53.954;9.506;2023-04-01T04:40:10;99529.28;;;7.32;100.00
29315;BME280;16320;53.954;9.506;2023-04-01T04:43:16;99532.41;;;7.23;100.00
29315;BME280;16320;53.954;9.506;2023-04-01T04:46:21;99550.88;;;7.20;100.00
29315;BME280;16320;53.954;9.506;2023-04-01T04:49:26;99551.47;;;7.25;100.00
29315;BME280;16320;53.954;9.506;2023-04-01T04:52:31;99562.66;;;7.27;100.00
29315;BME280;16320;53.954;9.506;2023-04-01T04:55:35;99552.41;;;7.24;100.00
29315;BME280;16320;53.954;9.506;2023-04-01T04:58:39;99556.09;;;7.20;100.00
29315;BME280;16320;53.954;9.506;2023-04-01T05:01:43;99556.94;;;7.20;100.00
29315;BME280;16320;53.954;9.506;2023-04-01T05:04:48;99559.66;;;7.19;100.00
29315;BME280;16320;53.954;9.506;2023-04-01T05:07:52;99572.78;;;7.17;100.00
29315;BME280;16320;53.954;9.506;2023-04-01T05:10:56;99569.78;;;7.09;100.00
29315;BME280;16320;53.954;9.506;2023-04-01T05:14:01;99574.16;;;7.08;100.00
29315;BME280;16320;53.954;9.506;2023-04-01T05:17:10;99582.75;;;7.10;100.00
29315;BME280;16320;53.954;9.506;2023-04-01T05:20:15;99588.53;;;7.15;100.00
29315;BME280;16320;53.954;9.506;2023-04-01T05:23:21;99587.00;;;7.11;100.00
29315;BME280;16320;53.954;9.506;2023-04-01T05:26:25;99586.00;;;6.98;100.00
29315;BME280;16320;53.954;9.506;2023-04-01T05:29:30;99591.41;;;6.95;100.00
29315;BME280;16320;53.954;9.506;2023-04-01T05:32:34;99595.28;;;6.88;100.00
29315;BME280;16320;53.954;9.506;2023-04-01T05:35:40;99592.50;;;6.91;100.00
29315;BME280;16320;53.954;9.506;2023-04-01T05:38:44;99601.34;;;6.88;100.00
29315;BME280;16320;53.954;9.506;2023-04-01T05:41:51;99604.44;;;6.95;100.00
29315;BME280;16320;53.954;9.506;2023-04-01T05:44:56;99611.44;;;6.94;100.00
29315;BME280;16320;53.954;9.506;2023-04-01T05:48:01;99618.03;;;6.86;100.00
29315;BME280;16320;53.954;9.506;2023-04-01T05:51:05;99617.25;;;6.84;100.00
29315;BME280;16320;53.954;9.506;2023-04-01T05:54:09;99620.69;;;6.68;100.00
29315;BME280;16320;53.954;9.506;2023-04-01T05:57:14;99622.34;;;6.69;100.00
29315;BME280;16320;53.954;9.506;2023-04-01T06:00:19;99626.66;;;6.70;100.00
29315;BME280;16320;53.954;9.506;2023-04-01T06:03:24;99634.00;;;6.80;100.00
29315;BME280;16320;53.954;9.506;2023-04-01T06:06:30;99640.66;;;6.85;100.00
29315;BME280;16320;53.954;9.506;2023-04-01T06:09:37;99635.06;;;6.75;100.00
29315;BME280;16320;53.954;9.506;2023-04-01T06:12:52;99642.00;;;6.76;100.00
29315;BME280;16320;53.954;9.506;2023-04-01T06:19:46;99653.50;;;6.72;100.00
29315;BME280;16320;53.954;9.506;2023-04-01T06:27:04;99663.34;;;6.67;100.00
29315;BME280;16320;53.954;9.506;2023-04-01T06:30:37;99668.72;;;6.64;100.00
29315;BME280;16320;53.954;9.506;2023-04-01T06:34:08;99678.47;;;6.60;100.00
29315;BME280;16320;53.954;9.506;2023-04-01T06:48:18;99695.84;;;6.62;100.00
29315;BME280;16320;53.954;9.506;2023-04-01T06:51:55;99694.97;;;6.61;100.00
29315;BME280;16320;53.954;9.506;2023-04-01T06:58:45;99715.47;;;6.51;100.00
29315;BME280;16320;53.954;9.506;2023-04-01T07:01:55;99712.78;;;6.53;100.00
29315;BME280;16320;53.954;9.506;2023-04-01T07:05:02;99722.91;;;6.59;100.00
29315;BME280;16320;53.954;9.506;2023-04-01T07:08:18;99726.91;;;6.49;100.00
29315;BME280;16320;53.954;9.506;2023-04-01T07:11:30;99726.63;;;6.37;100.00
29315;BME280;16320;53.954;9.506;2023-04-01T07:14:39;99733.88;;;6.48;100.00
29315;BME280;16320;53.954;9.506;2023-04-01T07:17:53;99739.22;;;6.47;100.00
29315;BME280;16320;53.954;9.506;2023-04-01T07:21:01;99745.03;;;6.52;100.00
29315;BME280;16320;53.954;9.506;2023-04-01T07:24:13;99756.38;;;6.51;100.00
29315;BME280;16320;53.954;9.506;2023-04-01T07:27:21;99765.59;;;6.40;100.00
29315;BME280;16320;53.954;9.506;2023-04-01T07:30:33;99766.03;;;6.31;100.00
29315;BME280;16320;53.954;9.506;2023-04-01T07:37:28;99773.50;;;6.39;100.00
29315;BME280;16320;53.954;9.506;2023-04-01T07:41:00;99782.06;;;6.41;100.00
29315;BME280;16320;53.954;9.506;2023-04-01T07:51:03;99799.56;;;6.39;100.00
29315;BME280;16320;53.954;9.506;2023-04-01T08:01:36;99815.63;;;6.49;100.00
29315;BME280;16320;53.954;9.506;2023-04-01T08:08:24;99825.59;;;6.40;100.00
29315;BME280;16320;53.954;9.506;2023-04-01T08:11:55;99828.78;;;6.28;100.00
29315;BME280;16320;53.954;9.506;2023-04-01T08:15:26;99833.69;;;6.34;100.00
29315;BME280;16320;53.954;9.506;2023-04-01T08:18:48;99838.78;;;6.37;100.00
29315;BME280;16320;53.954;9.506;2023-04-01T08:22:03;99852.88;;;6.33;100.00
29315;BME280;16320;53.954;9.506;2023-04-01T08:25:24;99858.22;;;6.30;100.00
29315;BME280;16320;53.954;9.506;2023-04-01T08:28:43;99853.47;;;6.21;100.00
29315;BME280;16320;53.954;9.506;2023-04-01T08:32:17;99861.06;;;6.26;100.00
29315;BME280;16320;53.954;9.506;2023-04-01T08:35:37;99865.63;;;6.39;100.00
29315;BME280;16320;53.954;9.506;2023-04-01T08:38:57;99871.38;;;6.46;100.00
29315;BME280;16320;53.954;9.506;2023-04-01T08:49:33;99893.13;;;6.47;100.00
29315;BME280;16320;53.954;9.506;2023-04-01T08:56:23;99893.72;;;6.52;100.00
29315;BME280;16320;53.954;9.506;2023-04-01T09:03:16;99904.16;;;6.52;100.00
29315;BME280;16320;53.954;9.506;2023-04-01T09:06:50;99914.13;;;6.61;100.00
29315;BME280;16320;53.954;9.506;2023-04-01T09:21:45;99931.34;;;6.65;100.00
29315;BME280;16320;53.954;9.506;2023-04-01T09:28:18;99930.94;;;6.55;100.00
29315;BME280;16320;53.954;9.506;2023-04-01T09:32:14;99939.94;;;6.67;100.00
29315;BME280;16320;53.954;9.506;2023-04-01T10:08:22;99987.09;;;6.82;100.00
29315;BME280;16320;53.954;9.506;2023-04-01T10:56:01;100038.13;;;6.51;100.00
29315;BME280;16320;53.954;9.506;2023-04-01T11:03:24;100041.38;;;6.37;100.00
29315;BME280;16320;53.954;9.506;2023-04-01T11:26:00;100072.25;;;6.27;100.00
29315;BME280;16320;53.954;9.506;2023-04-01T11:29:36;100081.59;;;6.31;100.00
29315;BME280;16320;53.954;9.506;2023-04-01T11:33:19;100085.78;;;6.35;100.00
29315;BME280;16320;53.954;9.506;2023-04-01T11:36:50;100090.56;;;6.26;100.00
29315;BME280;16320;53.954;9.506;2023-04-01T11:44:03;100106.41;;;6.21;100.00
29315;BME280;16320;53.954;9.506;2023-04-01T11:54:35;100111.34;;;6.07;100.00
29315;BME280;16320;53.954;9.506;2023-04-01T12:08:16;100139.09;;;5.87;100.00
29315;BME280;16320;53.954;9.506;2023-04-01T12:19:23;100138.59;;;5.99;100.00
29315;BME280;16320;53.954;9.506;2023-04-01T12:22:36;100158.94;;;6.12;100.00
29315;BME280;16320;53.954;9.506;2023-04-01T12:26:10;100156.44;;;6.09;100.00
29315;BME280;16320;53.954;9.506;2023-04-01T12:43:34;100172.44;;;5.79;100.00
29315;BME280;16320;53.954;9.506;2023-04-01T12:47:00;100195.66;;;5.85;100.00
29315;BME280;16320;53.954;9.506;2023-04-01T12:57:52;100201.56;;;5.89;100.00
29315;BME280;16320;53.954;9.506;2023-04-01T13:01:17;100216.22;;;5.91;100.00
29315;BME280;16320;53.954;9.506;2023-04-01T13:05:21;100224.84;;;5.93;100.00
29315;BME280;16320;53.954;9.506;2023-04-01T13:19:08;100238.25;;;5.84;100.00
29315;BME280;16320;53.954;9.506;2023-04-01T13:22:51;100237.19;;;5.88;100.00
29315;BME280;16320;53.954;9.506;2023-04-01T13:26:34;100245.22;;;5.83;100.00
29315;BME280;16320;53.954;9.506;2023-04-01T13:33:54;100253.94;;;5.82;100.00
29315;BME280;16320;53.954;9.506;2023-04-01T13:41:05;100267.50;;;5.68;100.00
29315;BME280;16320;53.954;9.506;2023-04-01T13:48:07;100274.34;;;5.71;100.00
29315;BME280;16320;53.954;9.506;2023-04-01T13:58:38;100292.53;;;5.73;100.00
29315;BME280;16320;53.954;9.506;2023-04-01T14:23:13;100322.47;;;5.62;100.00
29315;BME280;16320;53.954;9.506;2023-04-01T14:26:59;100334.41;;;5.68;100.00
29315;BME280;16320;53.954;9.506;2023-04-01T14:30:57;100344.72;;;5.71;100.00
29315;BME280;16320;53.954;9.506;2023-04-01T14:38:27;100337.63;;;5.75;100.00
29315;BME280;16320;53.954;9.506;2023-04-01T14:49:39;100372.50;;;5.47;100.00
29315;BME280;16320;53.954;9.506;2023-04-01T14:56:47;100373.31;;;5.49;100.00
29315;BME280;16320;53.954;9.506;2023-04-01T15:00:17;100382.94;;;5.47;100.00
29315;BME280;16320;53.954;9.506;2023-04-01T15:11:16;100392.47;;;5.48;100.00
29315;BME280;16320;53.954;9.506;2023-04-01T15:18:16;100404.41;;;5.54;100.00
29315;BME280;16320;53.954;9.506;2023-04-01T15:32:53;100431.75;;;5.42;100.00
29315;BME280;16320;53.954;9.506;2023-04-01T15:36:32;100432.75;;;5.38;100.00
29315;BME280;16320;53.954;9.506;2023-04-01T15:43:27;100434.41;;;5.15;100.00
29315;BME280;16320;53.954;9.506;2023-04-01T15:46:48;100436.56;;;5.27;100.00
29315;BME280;16320;53.954;9.506;2023-04-01T16:00:30;100458.53;;;5.20;100.00
29315;BME280;16320;53.954;9.506;2023-04-01T16:22:14;100497.22;;;5.04;100.00
29315;BME280;16320;53.954;9.506;2023-04-01T16:28:34;100518.06;;;5.04;100.00
29315;BME280;16320;53.954;9.506;2023-04-01T16:43:50;100535.31;;;5.07;100.00
29315;BME280;16320;53.954;9.506;2023-04-01T16:46:40;100559.19;;;5.20;100.00
29315;BME280;16320;53.954;9.506;2023-04-01T16:53:49;100565.53;;;5.12;100.00
29315;BME280;16320;53.954;9.506;2023-04-01T16:57:03;100570.88;;;5.08;100.00
29315;BME280;16320;53.954;9.506;2023-04-01T17:04:07;100582.59;;;4.93;100.00
29315;BME280;16320;53.954;9.506;2023-04-01T17:10:53;100591.94;;;4.70;100.00
29315;BME280;16320;53.954;9.506;2023-04-01T17:32:15;100632.69;;;4.40;100.00
29315;BME280;16320;53.954;9.506;2023-04-01T17:39:39;100646.75;;;4.33;100.00
29315;BME280;16320;53.954;9.506;2023-04-01T17:47:10;100663.97;;;4.37;100.00
29315;BME280;16320;53.954;9.506;2023-04-01T17:57:44;100694.88;;;4.49;100.00
29315;BME280;16320;53.954;9.506;2023-04-01T18:15:10;100728.66;;;4.16;100.00
29315;BME280;16320;53.954;9.506;2023-04-01T18:21:58;100736.81;;;4.01;100.00
29315;BME280;16320;53.954;9.506;2023-04-01T18:25:39;100744.78;;;3.95;100.00
29315;BME280;16320;53.954;9.506;2023-04-01T18:28:59;100761.25;;;3.94;100.00
29315;BME280;16320;53.954;9.506;2023-04-01T18:32:35;100769.97;;;3.91;100.00
29315;BME280;16320;53.954;9.506;2023-04-01T18:35:53;100774.75;;;3.72;100.00
29315;BME280;16320;53.954;9.506;2023-04-01T18:39:06;100780.22;;;3.60;100.00
29315;BME280;16320;53.954;9.506;2023-04-01T18:42:52;100788.00;;;3.60;100.00
29315;BME280;16320;53.954;9.506;2023-04-01T18:46:01;100790.72;;;3.54;100.00
29315;BME280;16320;53.954;9.506;2023-04-01T18:52:36;100806.59;;;3.41;100.00
29315;BME280;16320;53.954;9.506;2023-04-01T18:56:22;100818.72;;;3.39;100.00
29315;BME280;16320;53.954;9.506;2023-04-01T18:59:52;100829.09;;;3.39;100.00
29315;BME280;16320;53.954;9.506;2023-04-01T19:03:18;100831.69;;;3.39;100.00
29315;BME280;16320;53.954;9.506;2023-04-01T19:09:51;100852.69;;;3.30;100.00
29315;BME280;16320;53.954;9.506;2023-04-01T19:37:11;100902.69;;;2.90;100.00
29315;BME280;16320;53.954;9.506;2023-04-01T19:55:31;100942.78;;;2.70;100.00
29315;BME280;16320;53.954;9.506;2023-04-01T20:12:38;100976.44;;;2.75;100.00
29315;BME280;16320;53.954;9.506;2023-04-01T20:16:07;100987.63;;;2.79;100.00
29315;BME280;16320;53.954;9.506;2023-04-01T20:19:12;100989.44;;;2.73;100.00
29315;BME280;16320;53.954;9.506;2023-04-01T20:40:29;101031.13;;;2.58;100.00
29315;BME280;16320;53.954;9.506;2023-04-01T21:00:52;101055.31;;;2.62;100.00
29315;BME280;16320;53.954;9.506;2023-04-01T21:11:16;101078.75;;;2.55;100.00
29315;BME280;16320;53.954;9.506;2023-04-01T21:22:11;101098.78;;;2.43;100.00
29315;BME280;16320;53.954;9.506;2023-04-01T21:25:29;101101.41;;;2.40;100.00
29315;BME280;16320;53.954;9.506;2023-04-01T21:44:02;101142.97;;;2.30;100.00
29315;BME280;16320;53.954;9.506;2023-04-01T21:50:47;101139.56;;;2.25;100.00
29315;BME280;16320;53.954;9.506;2023-04-01T21:57:48;101156.00;;;2.24;100.00
29315;BME280;16320;53.954;9.506;2023-04-01T22:16:08;101182.84;;;2.18;100.00
29315;BME280;16320;53.954;9.506;2023-04-01T22:40:30;101220.09;;;2.07;100.00
29315;BME280;16320;53.954;9.506;2023-04-01T22:43:41;101234.78;;;2.03;100.00
29315;BME280;16320;53.954;9.506;2023-04-01T22:47:00;101237.44;;;1.98;100.00
29315;BME280;16320;53.954;9.506;2023-04-01T22:54:39;101256.47;;;1.91;100.00
29315;BME280;16320;53.954;9.506;2023-04-01T22:57:58;101263.41;;;1.89;100.00
29315;BME280;16320;53.954;9.506;2023-04-01T23:01:10;101271.19;;;1.88;100.00
29315;BME280;16320;53.954;9.506;2023-04-01T23:04:24;101280.72;;;1.87;100.00
29315;BME280;16320;53.954;9.506;2023-04-01T23:07:51;101282.47;;;1.82;100.00
29315;BME280;16320;53.954;9.506;2023-04-01T23:11:02;101299.72;;;1.80;100.00
29315;BME280;16320;53.954;9.506;2023-04-01T23:17:41;101302.31;;;1.78;100.00
29315;BME280;16320;53.954;9.506;2023-04-01T23:24:10;101304.06;;;1.79;100.00
29315;BME280;16320;53.954;9.506;2023-04-01T23:27:27;101313.56;;;1.79;100.00
29315;BME280;16320;53.954;9.506;2023-04-01T23:33:44;101319.59;;;1.78;100.00
29315;BME280;16320;53.954;9.506;2023-04-01T23:36:51;101321.31;;;1.82;100.00
29315;BME280;16320;53.954;9.506;2023-04-01T23:39:57;101320.44;;;1.80;100.00
29315;BME280;16320;53.954;9.506;2023-04-01T23:43:12;101330.00;;;1.73;100.00
29315;BME280;16320;53.954;9.506;2023-04-01T23:46:17;101334.31;;;1.76;100.00
29315;BME280;16320;53.954;9.506;2023-04-01T23:49:34;101339.47;;;1.76;100.00
29315;BME280;16320;53.954;9.506;2023-04-01T23:52:53;101342.94;;;1.75;100.00
29315;BME280;16320;53.954;9.506;2023-04-01T23:56:02;101348.09;;;1.75;100.00
29315;BME280;16320;53.954;9.506;2023-04-01T23:59:19;101348.09;;;1.76;100.00
